Terminal Aerodrome Forecast
Issued by NWS

Home | Current Version | Previous Version | Text Only | Print | Product List | Glossary On
Versions: 1 2 3 4 5 6 7 8 9 10 11 12 13 14 15 16 17 18 19 20 21 22
397
FTUS45 KFGZ 280542
TAFPRC
TAF
KPRC 280542Z 2806/0106 19007KT 6SM -RA BR OVC035
      TEMPO 2806/2810 3SM RA BR OVC021
     FM281800 26011KT P6SM OVC025=

USA.gov is the U.S. government's official web portal to all federal, state and local government web resources and services.